Wednesday, May 25, 2016
03:22 UTC
  |  Log In   |  Register Free
Airport Search:

Coleman Municipal Airport
(KCOM)

Coleman Municipal Airport Diagram
No Airport Diagram Available

FAA data valid effective Mar 31 2016 - May 26 2016 (unless otherwise noted).

 
 
 
 
 
 
 
 
 
 
 
 
 
 
Current Aviation Weather for KCOM

Weather Summary


The most recent METAR observation for COM was updated at: 12:55 UTC
METAR for KCOM is not available. Closest METAR is for KBWD
KCOM  (most recent observation was updatred at 25:03 UTC)
250315Z AUTO 16008KT 7SM CLR 24/22 A2993 RMK AO2 T02400220

KBWD  (23.0 nm NW)   (most recent observation was updated at 25:03 UTC)
250315Z AUTO 16006KT 8SM OVC023 24/23 A2992 RMK AO2

TAF for KCOM is not available.
GlobalAir.com is loading additional information.
 Current Weather at COM
76.0 F° (24.7 C°)

South winds at 10.4 mph
Pressure:
29.91 in
Humidity:
83%
Wind:
South at 10.4 mph
Dew Point:
71.1 F° (21.7 C°)
Visibility:
10.00 mi
COM NOAA Radar




Find All Airport Services Find A Hotel Find A Rental Car Find A Golf Course Find A Restaurant $100 Hamburger



Airport Weather Forecast for KCOM

Translated METAR for KCOM (0315 UTC)
METAR:
KCOM 250315Z AUTO 16008KT 7SM CLR 24/22 A2993 RMK AO2 T02400220
Conditions at:
KCOM (Coleman Muni, TX) observed 0315 UTC 24 May 2016
Temperature:
24°C (75.2°F)
Dewpoint:
22°C (71.6°F) [RH = 88.6]
Pressure:
29.93 inches Hg (1013.5 mb)
Winds:
from the SSE (160 degrees) at 9.2 mph (8 knots: 4.1 m/s)
Visibility:
7 mile(s)
Ceiling:
at least 12,000 feet AGL
Clouds:
Clear below 12,000 feet AGL
Remarks:
site is un-manned
site is automated and HAS a precipitation sensor

Translated TAF for TAF for COM is not available. Refer to local area forecast.
FBO's on the Field
FBO Company Facility Photos Services Transportation Aviation Fuel Prices: Prices include tax
Catering Weather Repair Courtesy Rental Type 100LL JetA JetA+ MOGAS 8087
 
Add another FBO Facility Photos Catering Weather Repair Courtesy Rental Type 100LL JetA JetA+ MOGAS 8087
Services Transportation Aviation Fuel Prices: Prices include tax
There are no FBO's currently reporting fuel at COM. List your FBO now


model-print
model-print
model-print
model-print